createdAt,value
2018-04-30T00:00:55.856Z,67.60
2018-04-30T00:03:23.442Z,67.90
2018-04-30T00:05:51.869Z,67.60
2018-04-30T00:08:19.495Z,67.60
2018-04-30T00:10:47.135Z,67.60
2018-04-30T00:13:14.735Z,67.70
2018-04-30T00:15:42.361Z,67.80
2018-04-30T00:18:09.982Z,67.90
2018-04-30T00:20:37.561Z,68.10
2018-04-30T00:23:05.180Z,67.90
2018-04-30T00:25:32.954Z,66.60
2018-04-30T00:28:01.363Z,65.60
2018-04-30T00:30:28.962Z,65.60
2018-04-30T00:32:57.422Z,65.80
2018-04-30T00:35:25.028Z,65.80
2018-04-30T00:37:52.610Z,65.30
2018-04-30T00:40:20.241Z,65.50
2018-04-30T00:42:48.605Z,65.40
2018-04-30T00:45:16.987Z,65.50
2018-04-30T00:47:45.380Z,65.60
2018-04-30T00:50:12.969Z,66.30
2018-04-30T00:52:40.557Z,65.50
2018-04-30T00:55:08.173Z,65.60
2018-04-30T00:57:35.804Z,65.50
2018-04-30T01:00:03.423Z,65.40
2018-04-30T01:02:31.048Z,65.70
2018-04-30T01:04:58.674Z,65.00
2018-04-30T01:07:26.273Z,65.20
2018-04-30T01:09:57.071Z,65.50
2018-04-30T01:12:26.778Z,65.40
2018-04-30T01:14:56.702Z,65.30
2018-04-30T01:17:27.340Z,65.00
2018-04-30T01:19:59.004Z,65.10
2018-04-30T01:22:29.670Z,65.10
2018-04-30T01:25:00.635Z,65.20
2018-04-30T01:27:30.371Z,65.40
2018-04-30T01:29:57.978Z,65.10
2018-04-30T01:32:25.620Z,65.60
2018-04-30T01:34:54.023Z,65.10
2018-04-30T01:37:21.647Z,65.10
2018-04-30T01:39:49.234Z,65.00
2018-04-30T01:42:16.889Z,65.00
2018-04-30T01:44:45.222Z,64.50
2018-04-30T01:47:12.805Z,64.50
2018-04-30T01:49:40.492Z,63.90
2018-04-30T01:52:08.109Z,64.50
2018-04-30T01:54:35.722Z,63.60
2018-04-30T01:57:04.141Z,63.40
2018-04-30T01:59:31.781Z,63.40
2018-04-30T02:01:59.440Z,63.40
2018-04-30T02:04:27.064Z,63.10
2018-04-30T02:06:54.694Z,63.20
2018-04-30T02:09:22.281Z,62.90
2018-04-30T02:11:49.893Z,63.20
2018-04-30T02:14:17.604Z,62.70
2018-04-30T02:16:45.196Z,62.60
2018-04-30T02:19:12.857Z,62.70
2018-04-30T02:21:41.249Z,63.30
2018-04-30T02:24:08.843Z,63.30
2018-04-30T02:26:36.477Z,63.20
2018-04-30T02:29:04.057Z,62.70
2018-04-30T02:31:31.646Z,62.50
2018-04-30T02:33:59.257Z,61.60
2018-04-30T02:36:26.911Z,62.00
2018-04-30T02:38:54.556Z,62.20
2018-04-30T02:41:22.919Z,62.00
2018-04-30T02:43:50.537Z,62.00
2018-04-30T02:46:18.304Z,62.30
2018-04-30T02:48:45.907Z,61.10
2018-04-30T02:51:13.551Z,61.30
2018-04-30T02:53:41.171Z,61.00
2018-04-30T02:56:08.793Z,61.40
2018-04-30T02:58:36.421Z,61.30
2018-04-30T03:01:04.041Z,61.30
2018-04-30T03:03:31.781Z,62.70
2018-04-30T03:05:59.416Z,63.20
2018-04-30T03:08:27.009Z,63.10
2018-04-30T03:10:54.626Z,61.80
2018-04-30T03:13:22.262Z,62.10
2018-04-30T03:15:49.855Z,61.70
2018-04-30T03:18:17.479Z,62.20
2018-04-30T03:20:45.134Z,61.80
2018-04-30T03:23:12.750Z,61.90
2018-04-30T03:25:40.373Z,63.00
2018-04-30T03:28:08.002Z,62.50
2018-04-30T03:30:35.667Z,62.60
2018-04-30T03:33:03.278Z,63.70
2018-04-30T03:35:30.863Z,64.00
2018-04-30T03:37:58.482Z,64.60
2018-04-30T03:40:26.093Z,65.00
2018-04-30T03:42:53.747Z,65.30
2018-04-30T03:45:21.331Z,64.70
2018-04-30T03:47:48.962Z,66.20
2018-04-30T03:50:16.603Z,67.10
2018-04-30T03:52:44.260Z,65.90
2018-04-30T03:55:11.887Z,67.50
2018-04-30T03:57:40.294Z,68.50
2018-04-30T04:03:13.818Z,69.40
2018-04-30T04:05:53.429Z,69.30
2018-04-30T04:08:21.018Z,70.10
2018-04-30T04:10:48.630Z,71.30
2018-04-30T04:13:16.193Z,71.30
2018-04-30T04:15:44.570Z,74.00
2018-04-30T04:18:12.947Z,74.50
2018-04-30T04:20:40.521Z,74.50
2018-04-30T04:23:08.913Z,77.00
2018-04-30T04:25:36.541Z,77.00
2018-04-30T04:28:04.202Z,77.80
2018-04-30T04:30:31.813Z,78.70
2018-04-30T04:32:59.437Z,78.90
2018-04-30T04:35:27.797Z,79.10
2018-04-30T04:37:55.417Z,79.10
2018-04-30T04:40:23.002Z,78.50
2018-04-30T04:42:50.627Z,79.70
2018-04-30T04:45:18.227Z,78.80
2018-04-30T04:47:45.913Z,79.80
2018-04-30T04:50:13.511Z,79.60
2018-04-30T04:52:41.149Z,80.10
2018-04-30T04:55:08.760Z,80.30
2018-04-30T04:57:36.372Z,81.00
2018-04-30T05:00:03.978Z,80.60
2018-04-30T05:02:31.609Z,82.10
2018-04-30T05:04:59.992Z,82.40
2018-04-30T05:07:28.387Z,82.70
2018-04-30T05:09:55.977Z,82.70
2018-04-30T05:12:23.666Z,83.20
2018-04-30T05:14:51.297Z,81.60
2018-04-30T05:17:18.922Z,81.60
2018-04-30T05:19:47.267Z,81.10
2018-04-30T05:22:14.894Z,81.10
2018-04-30T05:24:42.493Z,81.40
2018-04-30T05:27:10.081Z,81.90
2018-04-30T05:29:37.708Z,83.40
2018-04-30T05:32:05.347Z,81.70
2018-04-30T05:34:32.920Z,81.30
2018-04-30T05:37:00.506Z,81.60
2018-04-30T05:39:28.181Z,80.70
2018-04-30T05:41:56.574Z,82.20
2018-04-30T05:44:25.051Z,80.20
2018-04-30T05:46:53.449Z,80.30
2018-04-30T05:49:21.858Z,80.30
2018-04-30T05:51:49.571Z,80.30
2018-04-30T05:54:17.183Z,79.50
2018-04-30T05:56:44.789Z,79.30
2018-04-30T05:59:12.420Z,79.20
2018-04-30T06:01:40.115Z,78.00
2018-04-30T06:04:07.749Z,77.40
2018-04-30T06:06:35.384Z,75.90
2018-04-30T06:09:03.004Z,75.20
2018-04-30T06:11:30.595Z,74.40
2018-04-30T06:13:58.261Z,75.20
2018-04-30T06:16:25.846Z,74.10
2018-04-30T06:18:53.498Z,72.80
2018-04-30T06:21:21.134Z,72.90
2018-04-30T06:23:48.765Z,72.80
2018-04-30T06:26:16.382Z,73.00
2018-04-30T06:28:44.002Z,73.50
2018-04-30T06:31:11.639Z,73.50
2018-04-30T06:33:48.825Z,72.20
2018-04-30T06:36:16.440Z,72.80
2018-04-30T06:38:44.813Z,72.70
2018-04-30T06:41:13.198Z,72.10
2018-04-30T06:43:40.867Z,72.10
2018-04-30T06:46:08.494Z,70.50
2018-04-30T06:48:36.118Z,69.90
2018-04-30T06:51:03.784Z,69.70
2018-04-30T06:53:31.435Z,69.40
2018-04-30T06:55:59.735Z,69.50
2018-04-30T06:58:27.367Z,69.00
2018-04-30T07:00:54.948Z,69.70
2018-04-30T07:03:22.734Z,67.30
2018-04-30T07:05:51.271Z,67.40
2018-04-30T07:08:18.918Z,67.40
2018-04-30T07:10:46.505Z,66.10
2018-04-30T07:13:14.145Z,66.60
2018-04-30T07:15:41.799Z,65.60
2018-04-30T07:18:09.446Z,65.80
2018-04-30T07:20:37.104Z,66.00
2018-04-30T07:23:04.969Z,66.50
2018-04-30T07:25:33.348Z,65.50
2018-04-30T07:28:00.965Z,65.40
2018-04-30T07:30:28.532Z,64.90
2018-04-30T07:32:56.178Z,65.30
2018-04-30T07:35:23.769Z,63.90
2018-04-30T07:37:51.409Z,62.90
2018-04-30T07:40:19.021Z,62.50
2018-04-30T07:42:46.698Z,63.80
2018-04-30T07:45:14.319Z,62.40
2018-04-30T07:47:41.918Z,62.30
2018-04-30T07:50:09.506Z,60.60
2018-04-30T07:52:37.127Z,60.10
2018-04-30T07:55:04.742Z,59.70
2018-04-30T07:57:32.363Z,57.60
2018-04-30T07:59:59.976Z,56.20
2018-04-30T08:02:27.625Z,57.70
2018-04-30T08:04:55.267Z,57.30
2018-04-30T08:07:22.982Z,57.70
2018-04-30T08:09:50.613Z,56.60
2018-04-30T08:12:18.194Z,55.80
2018-04-30T08:14:45.886Z,56.00
2018-04-30T08:17:13.465Z,55.50
2018-04-30T08:19:41.078Z,55.70
2018-04-30T08:22:08.718Z,55.40
2018-04-30T08:24:36.331Z,54.30
2018-04-30T08:27:04.118Z,54.40
2018-04-30T08:29:32.495Z,55.60
2018-04-30T08:32:00.172Z,55.60
2018-04-30T08:34:27.933Z,55.30
2018-04-30T08:36:55.554Z,54.20
2018-04-30T08:39:23.260Z,54.90
2018-04-30T08:41:51.645Z,53.10
2018-04-30T08:44:20.056Z,52.60
2018-04-30T08:46:47.637Z,52.50
2018-04-30T08:49:15.272Z,53.50
2018-04-30T08:51:43.053Z,52.30
2018-04-30T08:54:10.628Z,51.70
2018-04-30T08:56:38.314Z,51.70
2018-04-30T08:59:05.953Z,51.50
2018-04-30T09:01:33.670Z,51.40
2018-04-30T09:04:01.305Z,52.00
2018-04-30T09:06:28.911Z,49.50
2018-04-30T09:08:56.552Z,49.70
2018-04-30T09:11:24.906Z,48.30
2018-04-30T09:13:52.554Z,48.30
2018-04-30T09:16:20.208Z,47.50
2018-04-30T09:18:47.888Z,48.70
2018-04-30T09:21:15.530Z,47.70
2018-04-30T09:23:43.112Z,46.80
2018-04-30T09:26:10.763Z,47.20
2018-04-30T09:28:38.415Z,47.90
2018-04-30T09:31:06.028Z,47.50
2018-04-30T09:33:34.499Z,46.50
2018-04-30T09:36:03.010Z,46.00
2018-04-30T09:38:30.674Z,46.00
2018-04-30T09:40:58.391Z,46.80
2018-04-30T09:43:26.085Z,46.40
2018-04-30T09:45:53.701Z,46.20
2018-04-30T09:48:21.338Z,46.70
2018-04-30T09:50:48.989Z,45.50
2018-04-30T09:53:16.585Z,45.30
2018-04-30T09:55:44.217Z,45.10
2018-04-30T09:58:11.823Z,44.60
2018-04-30T10:00:39.473Z,45.20
2018-04-30T10:03:07.051Z,45.00
2018-04-30T10:05:34.692Z,44.00
2018-04-30T10:08:02.294Z,44.90
2018-04-30T10:10:29.953Z,43.20
2018-04-30T10:12:57.583Z,42.50
2018-04-30T10:15:25.181Z,41.00
2018-04-30T10:17:52.904Z,41.60
2018-04-30T10:20:20.506Z,41.10
2018-04-30T10:22:48.141Z,41.60
2018-04-30T10:25:15.769Z,41.10
2018-04-30T10:27:44.177Z,39.50
2018-04-30T10:30:11.755Z,39.10
2018-04-30T10:32:39.430Z,40.10
2018-04-30T10:35:07.793Z,39.40
2018-04-30T10:37:35.407Z,39.30
2018-04-30T10:40:03.050Z,37.40
2018-04-30T10:42:30.672Z,38.20
2018-04-30T10:44:58.306Z,38.10
2018-04-30T10:47:25.890Z,35.80
2018-04-30T10:49:53.502Z,34.40
2018-04-30T10:52:21.881Z,36.40
2018-04-30T10:54:50.544Z,36.00
2018-04-30T10:57:18.652Z,36.00
2018-04-30T10:59:53.040Z,35.80
2018-04-30T11:02:21.235Z,35.80
2018-04-30T11:04:49.066Z,36.30
2018-04-30T11:07:16.681Z,37.00
2018-04-30T11:09:44.263Z,37.00
2018-04-30T11:12:12.119Z,35.30
2018-04-30T11:14:39.905Z,36.00
2018-04-30T11:17:07.686Z,35.30
2018-04-30T11:19:51.772Z,34.30
2018-04-30T11:22:21.231Z,35.20
2018-04-30T11:24:48.858Z,33.60
2018-04-30T11:27:16.491Z,33.40
2018-04-30T11:29:45.041Z,34.50
2018-04-30T11:32:12.705Z,34.50
2018-04-30T11:34:40.385Z,33.70
2018-04-30T11:37:08.947Z,32.80
2018-04-30T11:39:37.943Z,32.70
2018-04-30T11:42:06.957Z,34.20
2018-04-30T11:44:36.234Z,33.00
2018-04-30T11:47:05.497Z,33.40
2018-04-30T11:49:35.851Z,32.40
2018-04-30T11:52:03.457Z,32.40
2018-04-30T11:54:31.889Z,30.90
2018-04-30T11:56:59.479Z,30.70
2018-04-30T11:59:27.108Z,28.00
2018-04-30T12:01:54.750Z,27.90
2018-04-30T12:04:22.377Z,25.90
2018-04-30T12:06:50.027Z,25.80
2018-04-30T12:09:17.625Z,28.60
2018-04-30T12:11:46.232Z,28.90
2018-04-30T12:14:13.910Z,28.90
2018-04-30T12:16:41.590Z,28.70
2018-04-30T12:19:09.933Z,27.90
2018-04-30T12:21:37.526Z,27.90
2018-04-30T12:24:05.165Z,27.80
2018-04-30T12:26:32.761Z,27.70
2018-04-30T12:29:00.403Z,27.40
2018-04-30T12:31:28.077Z,28.20
2018-04-30T12:33:55.685Z,27.60
2018-04-30T12:36:24.076Z,28.60
2018-04-30T12:38:52.441Z,30.00
2018-04-30T12:41:20.831Z,29.10
2018-04-30T12:43:48.527Z,29.10
2018-04-30T12:46:16.154Z,28.90
2018-04-30T12:48:44.571Z,27.30
2018-04-30T12:51:12.184Z,27.30
2018-04-30T12:53:39.844Z,27.60
2018-04-30T12:56:07.429Z,29.40
2018-04-30T12:58:35.073Z,28.10
2018-04-30T13:01:02.722Z,29.20
2018-04-30T13:03:30.330Z,29.10
2018-04-30T13:05:57.946Z,28.90
2018-04-30T13:08:25.614Z,28.40
2018-04-30T13:10:53.402Z,28.70
2018-04-30T13:13:21.764Z,28.30
2018-04-30T13:15:49.435Z,28.30
2018-04-30T13:18:17.800Z,27.50
2018-04-30T13:20:45.439Z,27.50
2018-04-30T13:23:13.113Z,27.40
2018-04-30T13:25:40.781Z,28.40
2018-04-30T13:28:08.421Z,28.70
2018-04-30T13:30:36.002Z,27.90
2018-04-30T13:33:03.621Z,29.10
2018-04-30T13:35:31.221Z,29.00
2018-04-30T13:37:58.832Z,29.20
2018-04-30T13:40:27.193Z,29.80
2018-04-30T13:42:54.811Z,29.80
2018-04-30T13:45:22.413Z,28.50
2018-04-30T13:47:49.988Z,28.50
2018-04-30T13:50:18.378Z,28.60
2018-04-30T13:52:46.828Z,29.60
2018-04-30T13:55:14.425Z,29.60
2018-04-30T13:57:41.998Z,28.30
2018-04-30T14:00:09.646Z,29.90
2018-04-30T14:02:38.040Z,28.70
2018-04-30T14:05:05.629Z,28.70
2018-04-30T14:07:34.036Z,26.80
2018-04-30T14:10:01.686Z,26.80
2018-04-30T14:12:30.114Z,27.20
2018-04-30T14:14:58.539Z,27.00
2018-04-30T14:17:26.193Z,27.00
2018-04-30T14:19:54.065Z,27.60
2018-04-30T14:22:22.865Z,28.20
2018-04-30T14:24:50.469Z,27.90
2018-04-30T14:27:18.100Z,28.50
2018-04-30T14:29:45.695Z,28.70
2018-04-30T14:32:14.082Z,29.60
2018-04-30T14:34:41.654Z,29.60
2018-04-30T14:37:09.307Z,30.00
2018-04-30T14:39:36.909Z,29.70
2018-04-30T14:42:04.527Z,29.20
2018-04-30T14:44:32.911Z,30.10
2018-04-30T14:47:00.574Z,30.10
2018-04-30T14:49:28.222Z,30.10
2018-04-30T14:51:55.873Z,30.00
2018-04-30T14:54:23.527Z,31.10
2018-04-30T14:56:51.250Z,30.20
2018-04-30T14:59:18.852Z,31.50
2018-04-30T15:01:46.513Z,30.00
2018-04-30T15:04:14.146Z,32.20
2018-04-30T15:06:41.816Z,30.50
2018-04-30T15:09:09.456Z,31.20
2018-04-30T15:11:37.034Z,31.90
2018-04-30T15:14:04.868Z,31.70
2018-04-30T15:16:32.489Z,31.50
2018-04-30T15:19:00.102Z,31.60
2018-04-30T15:21:28.529Z,31.50
2018-04-30T15:23:56.919Z,31.00
2018-04-30T15:26:24.557Z,30.90
2018-04-30T15:28:52.207Z,29.40
2018-04-30T15:31:19.786Z,29.70
2018-04-30T15:33:47.515Z,29.20
2018-04-30T15:36:15.209Z,29.00
2018-04-30T15:38:42.833Z,29.20
2018-04-30T15:41:10.529Z,29.00
2018-04-30T15:43:38.206Z,28.40
2018-04-30T15:46:05.804Z,28.00
2018-04-30T15:48:33.457Z,28.10
2018-04-30T15:51:01.042Z,27.90
2018-04-30T15:53:28.689Z,27.30
2018-04-30T15:55:57.042Z,27.30
2018-04-30T15:58:24.634Z,27.30
2018-04-30T16:00:52.323Z,27.80
2018-04-30T16:03:19.909Z,28.10
2018-04-30T16:05:47.553Z,29.60
2018-04-30T16:08:15.166Z,29.70
2018-04-30T16:10:42.796Z,30.30
2018-04-30T16:13:10.448Z,30.40
2018-04-30T16:15:38.121Z,30.20
2018-04-30T16:18:05.704Z,30.90
2018-04-30T16:20:33.344Z,31.40
2018-04-30T16:23:00.955Z,32.10
2018-04-30T16:25:29.373Z,31.60
2018-04-30T16:27:56.995Z,31.60
2018-04-30T16:30:25.372Z,32.20
2018-04-30T16:32:53.761Z,33.40
2018-04-30T16:35:21.374Z,33.40
2018-04-30T16:37:49.041Z,33.30
2018-04-30T16:40:16.684Z,33.50
2018-04-30T16:42:44.309Z,31.90
2018-04-30T16:45:12.730Z,31.40
2018-04-30T16:47:40.347Z,31.40
2018-04-30T16:50:08.767Z,28.20
2018-04-30T16:52:36.379Z,28.20
2018-04-30T16:55:04.056Z,28.30
2018-04-30T16:57:32.489Z,29.50
2018-04-30T17:00:00.113Z,29.50
2018-04-30T17:02:27.757Z,31.20
2018-04-30T17:04:56.149Z,32.20
2018-04-30T17:07:23.832Z,32.20
2018-04-30T17:09:51.464Z,32.30
2018-04-30T17:12:19.835Z,36.20
2018-04-30T17:14:48.284Z,37.80
2018-04-30T17:17:15.873Z,37.80
2018-04-30T17:19:43.457Z,38.70
2018-04-30T17:22:11.856Z,40.30
2018-04-30T17:24:39.461Z,40.20
2018-04-30T17:27:07.103Z,40.20
2018-04-30T17:29:34.867Z,40.50
2018-04-30T17:32:02.493Z,41.30
2018-04-30T17:34:30.951Z,40.30
2018-04-30T17:36:58.549Z,40.20
2018-04-30T17:39:26.142Z,41.20
2018-04-30T17:41:53.758Z,40.90
2018-04-30T17:44:22.164Z,40.40
2018-04-30T17:46:49.804Z,40.40
2018-04-30T17:49:17.479Z,40.60
2018-04-30T17:51:45.104Z,41.40
2018-04-30T17:54:12.694Z,41.30
2018-04-30T17:56:41.110Z,41.80
2018-04-30T17:59:08.715Z,41.60
2018-04-30T18:01:36.340Z,41.90
2018-04-30T18:04:03.945Z,41.80
2018-04-30T18:06:32.363Z,42.40
2018-04-30T18:08:59.997Z,42.40
2018-04-30T18:11:28.377Z,42.70
2018-04-30T18:13:56.773Z,42.80
2018-04-30T18:16:24.421Z,42.70
2018-04-30T18:18:52.796Z,43.70
2018-04-30T18:21:21.148Z,44.00
2018-04-30T18:23:48.784Z,43.90
2018-04-30T18:26:16.364Z,44.00
2018-04-30T18:28:43.990Z,43.70
2018-04-30T18:31:11.621Z,44.10
2018-04-30T18:33:40.031Z,44.50
2018-04-30T18:36:07.614Z,44.40
2018-04-30T18:38:35.250Z,44.40
2018-04-30T18:41:02.880Z,44.90
2018-04-30T18:43:31.285Z,45.50
2018-04-30T18:45:58.961Z,45.50
2018-04-30T18:48:26.576Z,45.80
2018-04-30T18:50:54.235Z,45.30
2018-04-30T18:53:21.801Z,45.20
2018-04-30T18:55:49.439Z,45.50
2018-04-30T18:58:17.090Z,45.50
2018-04-30T19:00:44.695Z,46.00
2018-04-30T19:03:13.133Z,46.70
2018-04-30T19:05:40.720Z,46.60
2018-04-30T19:08:08.419Z,45.90
2018-04-30T19:10:36.763Z,46.60
2018-04-30T19:13:04.340Z,46.50
2018-04-30T19:15:32.751Z,47.60
2018-04-30T19:18:00.324Z,47.60
2018-04-30T19:20:27.905Z,48.20
2018-04-30T19:22:55.546Z,48.90
2018-04-30T19:25:23.151Z,49.40
2018-04-30T19:27:50.778Z,50.00
2018-04-30T19:30:18.385Z,50.50
2018-04-30T19:32:45.993Z,51.30
2018-04-30T19:35:13.624Z,51.60
2018-04-30T19:37:42.019Z,52.40
2018-04-30T19:40:10.429Z,52.40
2018-04-30T19:42:38.786Z,52.90
2018-04-30T19:45:06.454Z,53.00
2018-04-30T19:47:34.253Z,53.30
2018-04-30T19:50:01.879Z,53.90
2018-04-30T19:52:29.614Z,53.90
2018-04-30T19:54:57.176Z,54.20
2018-04-30T19:57:24.794Z,54.00
2018-04-30T19:59:52.365Z,54.10
2018-04-30T20:02:22.314Z,54.50
2018-04-30T20:04:50.916Z,54.50
2018-04-30T20:07:19.315Z,54.90
2018-04-30T20:09:46.949Z,54.90
2018-04-30T20:12:15.349Z,54.40
2018-04-30T20:14:43.745Z,54.90
2018-04-30T20:17:11.388Z,54.80
2018-04-30T20:19:39.051Z,54.60
2018-04-30T20:22:07.501Z,55.10
2018-04-30T20:24:35.179Z,55.10
2018-04-30T20:27:03.575Z,54.90
2018-04-30T20:29:31.913Z,55.30
2018-04-30T20:31:59.559Z,55.30
2018-04-30T20:34:27.172Z,54.60
2018-04-30T20:36:55.513Z,54.20
2018-04-30T20:39:23.118Z,54.20
2018-04-30T20:41:51.448Z,53.70
2018-04-30T20:44:19.104Z,53.70
2018-04-30T20:46:46.718Z,53.80
2018-04-30T20:49:15.064Z,53.60
2018-04-30T20:51:42.656Z,53.60
2018-04-30T20:54:11.074Z,53.70
2018-04-30T20:56:38.698Z,53.70
2018-04-30T20:59:07.066Z,53.80
2018-04-30T21:01:34.687Z,53.80
2018-04-30T21:04:02.358Z,53.40
2018-04-30T21:06:30.040Z,53.30
2018-04-30T21:09:14.447Z,53.30
2018-04-30T21:11:42.002Z,53.00
2018-04-30T21:14:09.580Z,53.40
2018-04-30T21:16:37.258Z,53.10
2018-04-30T21:19:04.866Z,53.20
2018-04-30T21:21:33.271Z,52.20
2018-04-30T21:24:00.906Z,52.20
2018-04-30T21:26:29.282Z,51.40
2018-04-30T21:28:56.899Z,51.40
2018-04-30T21:31:24.537Z,51.50
2018-04-30T21:33:52.133Z,51.40
2018-04-30T21:36:19.729Z,51.70
2018-04-30T21:38:47.336Z,51.40
2018-04-30T21:41:14.979Z,51.10
2018-04-30T21:43:43.419Z,51.00
2018-04-30T21:46:11.088Z,51.00
2018-04-30T21:48:38.682Z,50.90
2018-04-30T21:51:06.304Z,50.90
2018-04-30T21:53:33.951Z,50.00
2018-04-30T21:56:01.555Z,49.90
2018-04-30T21:58:29.947Z,49.50
2018-04-30T22:00:57.584Z,49.40
2018-04-30T22:03:26.009Z,49.90
2018-04-30T22:05:53.585Z,49.90
2018-04-30T22:08:21.170Z,50.00
2018-04-30T22:10:48.809Z,49.90
2018-04-30T22:13:16.399Z,50.20
2018-04-30T22:15:44.035Z,49.90
2018-04-30T22:18:11.616Z,50.00
2018-04-30T22:20:39.256Z,50.40
2018-04-30T22:23:06.906Z,50.60
2018-04-30T22:25:34.490Z,50.90
2018-04-30T22:28:02.095Z,51.00
2018-04-30T22:30:30.506Z,51.70
2018-04-30T22:32:58.107Z,51.60
2018-04-30T22:35:25.705Z,51.40
2018-04-30T22:37:54.085Z,51.50
2018-04-30T22:40:22.483Z,51.60
2018-04-30T22:42:50.094Z,51.60
2018-04-30T22:45:17.753Z,51.90
2018-04-30T22:47:45.343Z,52.00
2018-04-30T22:50:12.967Z,52.50
2018-04-30T22:52:40.561Z,52.50
2018-04-30T22:55:08.214Z,52.80
2018-04-30T22:57:35.866Z,52.70
2018-04-30T23:00:03.484Z,52.50
2018-04-30T23:02:31.064Z,52.50
2018-04-30T23:04:58.728Z,52.30
2018-04-30T23:07:26.338Z,52.20
2018-04-30T23:09:54.732Z,52.70
2018-04-30T23:12:23.070Z,53.00
2018-04-30T23:14:50.670Z,53.00
2018-04-30T23:17:18.303Z,53.00
2018-04-30T23:19:45.893Z,53.20
2018-04-30T23:22:15.294Z,53.20
2018-04-30T23:24:43.641Z,53.90
2018-04-30T23:27:11.264Z,54.00
2018-04-30T23:29:38.862Z,53.70
2018-04-30T23:32:06.479Z,53.70
2018-04-30T23:34:34.068Z,54.00
2018-04-30T23:37:01.763Z,53.80
2018-04-30T23:39:29.286Z,53.80
2018-04-30T23:41:56.946Z,54.20
2018-04-30T23:44:24.543Z,54.20
2018-04-30T23:46:52.159Z,54.30
2018-04-30T23:49:19.818Z,54.30
2018-04-30T23:51:47.401Z,54.50
2018-04-30T23:54:15.043Z,54.90
2018-04-30T23:56:42.621Z,55.30
2018-04-30T23:59:10.236Z,55.20
